Terminal Aerodrome Forecast
Issued by NWS Memphis, TN

Home | Current Version | Previous Version | Text Only | Print | Product List | Glossary On
Versions: 1 2 3 4 5 6 7 8 9 10 11 12 13 14 15 16 17 18 19 20 21 22 23 24 25 26 27 28 29 30 31 32 33 34 35 36
000
FTUS44 KMEG 190807 AAB
TAFMEM
TAF AMD
KMEM 190807Z 1908/2012 17011KT P6SM FEW007 SCT035 BKN150
      WS020/19060KT
      TEMPO 1910/1914 BKN007
     FM191400 18011G20KT P6SM OVC015
     FM191600 19015G23KT P6SM SCT035 BKN200
     FM200000 17011KT P6SM SCT050 OVC200
     FM200900 18012G20KT P6SM BKN015 WS020/20050KT=

USA.gov is the U.S. government's official web portal to all federal, state and local government web resources and services.